createdAt,value
2022-07-29T00:02:57.809Z,57.49
2022-07-29T00:05:47.241Z,57.63
2022-07-29T00:08:36.618Z,57.76
2022-07-29T00:11:25.902Z,57.77
2022-07-29T00:14:00.226Z,57.74
2022-07-29T00:16:51.310Z,57.69
2022-07-29T00:19:55.993Z,57.78
2022-07-29T00:22:39.942Z,57.77
2022-07-29T00:25:29.615Z,57.91
2022-07-29T00:28:19.973Z,57.83
2022-07-29T00:31:09.690Z,58.12
2022-07-29T00:33:58.597Z,58.32
2022-07-29T00:36:53.239Z,58.32
2022-07-29T00:39:43.201Z,58.21
2022-07-29T00:42:42.509Z,58.43
2022-07-29T00:45:32.034Z,58.58
2022-07-29T00:48:21.782Z,58.61
2022-07-29T00:51:11.566Z,58.72
2022-07-29T00:54:01.045Z,58.99
2022-07-29T00:57:00.269Z,58.74
2022-07-29T00:59:48.418Z,58.63
2022-07-29T01:02:38.587Z,58.80
2022-07-29T01:05:48.490Z,58.67
2022-07-29T01:08:57.474Z,58.69
2022-07-29T01:11:49.969Z,58.88
2022-07-29T01:14:44.394Z,58.86
2022-07-29T01:17:37.661Z,59.03
2022-07-29T01:20:47.684Z,59.23
2022-07-29T01:23:56.922Z,59.52
2022-07-29T01:26:53.461Z,59.37
2022-07-29T01:29:50.387Z,59.27
2022-07-29T01:32:41.731Z,59.53
2022-07-29T01:35:37.361Z,59.66
2022-07-29T01:38:29.513Z,59.67
2022-07-29T01:41:13.687Z,59.87
2022-07-29T01:44:10.458Z,59.82
2022-07-29T01:47:03.257Z,59.88
2022-07-29T01:49:55.414Z,60.05
2022-07-29T01:52:50.229Z,59.88
2022-07-29T01:55:45.219Z,60.04
2022-07-29T01:58:36.006Z,60.00
2022-07-29T02:01:27.721Z,59.95
2022-07-29T02:04:10.756Z,60.02
2022-07-29T02:07:03.962Z,60.23
2022-07-29T02:09:53.762Z,60.21
2022-07-29T02:12:50.796Z,60.24
2022-07-29T02:15:42.921Z,60.45
2022-07-29T02:18:28.609Z,60.09
2022-07-29T02:21:24.150Z,60.09
2022-07-29T02:24:15.332Z,60.30
2022-07-29T02:27:12.947Z,60.20
2022-07-29T02:30:14.529Z,60.35
2022-07-29T02:33:06.251Z,60.08
2022-07-29T02:35:57.987Z,60.39
2022-07-29T02:38:51.641Z,60.38
2022-07-29T02:41:39.938Z,60.53
2022-07-29T02:44:34.409Z,60.52
2022-07-29T02:47:28.654Z,60.56
2022-07-29T02:50:13.480Z,60.80
2022-07-29T02:53:08.213Z,60.55
2022-07-29T02:56:02.385Z,60.46
2022-07-29T02:58:57.847Z,60.48
2022-07-29T03:01:43.436Z,60.45
2022-07-29T03:04:17.785Z,60.69
2022-07-29T03:07:01.515Z,60.76
2022-07-29T03:09:52.367Z,60.65
2022-07-29T03:12:42.789Z,60.93
2022-07-29T03:15:32.937Z,61.00
2022-07-29T03:18:22.800Z,61.10
2022-07-29T03:21:12.414Z,61.05
2022-07-29T03:24:05.570Z,61.14
2022-07-29T03:26:59.090Z,60.90
2022-07-29T03:29:41.490Z,60.84
2022-07-29T03:32:39.556Z,60.94
2022-07-29T03:35:31.955Z,61.19
2022-07-29T03:38:11.212Z,61.09
2022-07-29T03:41:06.047Z,61.15
2022-07-29T03:43:54.717Z,61.06
2022-07-29T03:46:45.641Z,61.27
2022-07-29T03:49:37.700Z,61.34
2022-07-29T03:52:27.305Z,61.50
2022-07-29T03:55:20.084Z,61.29
2022-07-29T03:58:11.737Z,61.31
2022-07-29T04:01:01.142Z,61.51
2022-07-29T04:03:52.050Z,61.40
2022-07-29T04:10:17.680Z,61.40
2022-07-29T04:13:18.736Z,61.50
2022-07-29T04:16:09.399Z,61.50
2022-07-29T04:18:58.858Z,61.71
2022-07-29T04:21:48.356Z,61.58
2022-07-29T04:24:37.486Z,61.76
2022-07-29T04:27:27.241Z,61.87
2022-07-29T04:30:16.371Z,61.89
2022-07-29T04:33:07.848Z,61.97
2022-07-29T04:35:54.937Z,62.05
2022-07-29T04:38:44.342Z,62.23
2022-07-29T04:41:34.562Z,62.10
2022-07-29T04:44:28.767Z,62.05
2022-07-29T04:47:18.538Z,62.01
2022-07-29T04:50:19.509Z,62.22
2022-07-29T04:53:01.877Z,62.25
2022-07-29T04:55:54.189Z,61.96
2022-07-29T04:58:43.104Z,62.03
2022-07-29T05:01:32.708Z,61.91
2022-07-29T05:04:21.907Z,62.19
2022-07-29T05:07:11.033Z,62.09
2022-07-29T05:10:00.494Z,61.94
2022-07-29T05:12:51.309Z,61.84
2022-07-29T05:15:41.357Z,62.08
2022-07-29T05:18:30.615Z,61.85
2022-07-29T05:21:19.615Z,61.93
2022-07-29T05:24:09.843Z,62.12
2022-07-29T05:26:58.981Z,61.96
2022-07-29T05:29:48.186Z,62.37
2022-07-29T05:32:27.203Z,62.43
2022-07-29T05:35:16.857Z,62.46
2022-07-29T05:38:06.127Z,62.43
2022-07-29T05:40:59.506Z,61.97
2022-07-29T05:44:19.433Z,61.77
2022-07-29T05:47:07.906Z,61.69
2022-07-29T05:49:57.190Z,61.41
2022-07-29T05:52:46.169Z,61.23
2022-07-29T05:55:35.536Z,60.89
2022-07-29T05:58:28.830Z,60.51
2022-07-29T06:01:18.134Z,60.29
2022-07-29T06:04:07.755Z,60.13
2022-07-29T06:06:57.144Z,60.07
2022-07-29T06:09:46.381Z,59.93
2022-07-29T06:12:26.899Z,59.59
2022-07-29T06:15:16.438Z,59.17
2022-07-29T06:18:08.780Z,58.98
2022-07-29T06:20:59.065Z,58.76
2022-07-29T06:24:37.715Z,58.68
2022-07-29T06:28:10.876Z,58.34
2022-07-29T06:31:00.570Z,58.32
2022-07-29T06:33:51.313Z,58.39
2022-07-29T06:36:37.714Z,58.41
2022-07-29T06:39:43.214Z,58.44
2022-07-29T06:42:32.182Z,58.38
2022-07-29T06:45:21.355Z,58.43
2022-07-29T06:48:11.099Z,58.52
2022-07-29T06:51:00.711Z,58.47
2022-07-29T06:53:58.375Z,58.48
2022-07-29T06:56:53.273Z,58.49
2022-07-29T06:59:42.005Z,58.56
2022-07-29T07:02:31.100Z,58.38
2022-07-29T07:05:11.135Z,58.29
2022-07-29T07:08:14.553Z,58.40
2022-07-29T07:12:16.289Z,58.29
2022-07-29T07:15:07.717Z,58.39
2022-07-29T07:17:56.573Z,58.43
2022-07-29T07:20:46.720Z,58.45
2022-07-29T07:23:36.028Z,58.36
2022-07-29T07:26:25.609Z,58.25
2022-07-29T07:29:14.611Z,58.34
2022-07-29T07:32:04.315Z,58.23
2022-07-29T07:34:53.755Z,58.28
2022-07-29T07:37:42.888Z,58.22
2022-07-29T07:40:32.608Z,58.17
2022-07-29T07:43:22.301Z,58.17
2022-07-29T07:46:11.492Z,57.98
2022-07-29T07:49:03.829Z,58.16
2022-07-29T07:51:53.172Z,58.04
2022-07-29T07:55:09.837Z,57.98
2022-07-29T07:57:59.043Z,57.89
2022-07-29T08:00:51.554Z,57.79
2022-07-29T08:03:40.916Z,57.79
2022-07-29T08:06:30.601Z,57.66
2022-07-29T08:09:28.634Z,57.65
2022-07-29T08:12:19.288Z,57.57
2022-07-29T08:15:13.181Z,57.45
2022-07-29T08:17:54.577Z,57.30
2022-07-29T08:20:44.120Z,57.20
2022-07-29T08:23:48.545Z,57.25
2022-07-29T08:26:39.404Z,57.21
2022-07-29T08:29:28.431Z,57.11
2022-07-29T08:32:36.883Z,56.88
2022-07-29T08:35:33.330Z,56.95
2022-07-29T08:38:24.295Z,56.71
2022-07-29T08:41:14.319Z,56.71
2022-07-29T08:44:03.852Z,56.70
2022-07-29T08:46:54.352Z,56.59
2022-07-29T08:49:48.023Z,56.23
2022-07-29T08:52:42.311Z,56.11
2022-07-29T08:55:32.129Z,56.10
2022-07-29T08:58:23.247Z,56.13
2022-07-29T09:01:17.705Z,56.04
2022-07-29T09:04:12.732Z,55.72
2022-07-29T09:07:07.829Z,55.27
2022-07-29T09:09:57.881Z,54.98
2022-07-29T09:12:51.243Z,54.94
2022-07-29T09:15:40.720Z,54.64
2022-07-29T09:18:38.403Z,54.14
2022-07-29T09:22:00.005Z,53.84
2022-07-29T09:24:51.636Z,53.43
2022-07-29T09:27:34.249Z,53.52
2022-07-29T09:30:28.871Z,53.68
2022-07-29T09:33:22.543Z,53.83
2022-07-29T09:36:12.437Z,53.13
2022-07-29T09:39:04.678Z,52.87
2022-07-29T09:41:56.395Z,52.54
2022-07-29T09:44:50.389Z,52.15
2022-07-29T09:47:51.300Z,52.27
2022-07-29T09:50:41.711Z,52.04
2022-07-29T09:53:35.294Z,51.31
2022-07-29T09:56:40.521Z,51.21
2022-07-29T09:59:20.881Z,51.07
2022-07-29T10:02:20.313Z,51.05
2022-07-29T10:05:21.543Z,51.09
2022-07-29T10:08:12.859Z,51.04
2022-07-29T10:11:11.851Z,50.80
2022-07-29T10:13:54.492Z,50.73
2022-07-29T10:16:43.906Z,50.79
2022-07-29T10:19:34.455Z,50.74
2022-07-29T10:22:51.512Z,50.88
2022-07-29T10:25:35.756Z,50.97
2022-07-29T10:28:27.342Z,50.95
2022-07-29T10:31:09.197Z,50.98
2022-07-29T10:34:08.951Z,51.05
2022-07-29T10:37:07.220Z,50.88
2022-07-29T10:40:25.185Z,50.64
2022-07-29T10:43:22.248Z,50.69
2022-07-29T10:46:12.961Z,50.55
2022-07-29T10:49:11.369Z,50.01
2022-07-29T10:52:05.938Z,49.84
2022-07-29T10:54:59.269Z,49.85
2022-07-29T10:58:13.307Z,49.74
2022-07-29T11:01:37.664Z,49.29
2022-07-29T11:05:00.706Z,49.26
2022-07-29T11:08:26.081Z,49.28
2022-07-29T11:11:37.515Z,49.25
2022-07-29T11:14:58.642Z,49.21
2022-07-29T11:18:15.307Z,49.23
2022-07-29T11:21:55.052Z,49.02
2022-07-29T11:24:50.317Z,48.93
2022-07-29T11:27:40.115Z,48.65
2022-07-29T11:30:53.705Z,48.52
2022-07-29T11:33:55.997Z,48.65
2022-07-29T11:37:17.746Z,48.63
2022-07-29T11:40:14.761Z,48.53
2022-07-29T11:42:51.814Z,48.25
2022-07-29T11:45:47.829Z,48.60
2022-07-29T11:48:32.595Z,48.60
2022-07-29T11:51:32.990Z,48.28
2022-07-29T11:54:38.930Z,48.23
2022-07-29T11:58:04.061Z,47.64
2022-07-29T12:00:56.183Z,47.53
2022-07-29T12:03:45.858Z,47.53
2022-07-29T12:06:35.793Z,47.20
2022-07-29T12:09:18.591Z,47.02
2022-07-29T12:12:10.777Z,46.88
2022-07-29T12:15:11.006Z,46.41
2022-07-29T12:18:12.223Z,46.08
2022-07-29T12:20:58.790Z,45.92
2022-07-29T12:23:55.933Z,45.79
2022-07-29T12:26:56.448Z,45.53
2022-07-29T12:29:48.051Z,45.07
2022-07-29T12:32:40.463Z,44.95
2022-07-29T12:35:29.730Z,44.88
2022-07-29T12:38:20.148Z,44.84
2022-07-29T12:40:55.454Z,44.76
2022-07-29T12:43:55.072Z,44.66
2022-07-29T12:46:47.420Z,44.82
2022-07-29T12:49:32.749Z,44.93
2022-07-29T12:52:29.524Z,44.86
2022-07-29T12:55:50.009Z,44.89
2022-07-29T12:58:41.854Z,44.85
2022-07-29T13:01:21.335Z,44.91
2022-07-29T13:04:10.713Z,44.97
2022-07-29T13:07:05.881Z,44.92
2022-07-29T13:09:55.652Z,44.67
2022-07-29T13:13:04.084Z,44.63
2022-07-29T13:16:08.476Z,44.55
2022-07-29T13:19:08.763Z,44.35
2022-07-29T13:21:58.103Z,44.51
2022-07-29T13:24:50.113Z,44.35
2022-07-29T13:27:41.124Z,44.27
2022-07-29T13:30:30.481Z,44.04
2022-07-29T13:33:09.391Z,43.88
2022-07-29T13:35:58.823Z,43.84
2022-07-29T13:38:47.919Z,43.75
2022-07-29T13:41:37.206Z,43.45
2022-07-29T13:44:26.496Z,43.35
2022-07-29T13:47:32.800Z,43.19
2022-07-29T13:50:22.615Z,43.29
2022-07-29T13:53:17.502Z,43.34
2022-07-29T13:56:07.210Z,43.45
2022-07-29T13:58:46.535Z,43.47
2022-07-29T14:01:27.766Z,43.25
2022-07-29T14:04:18.039Z,43.24
2022-07-29T14:07:07.600Z,43.12
2022-07-29T14:09:57.372Z,42.82
2022-07-29T14:12:46.833Z,42.64
2022-07-29T14:15:35.803Z,42.78
2022-07-29T14:18:28.645Z,42.88
2022-07-29T14:21:10.358Z,42.68
2022-07-29T14:23:59.173Z,42.77
2022-07-29T14:26:52.924Z,42.50
2022-07-29T14:29:41.884Z,42.56
2022-07-29T14:32:31.433Z,42.51
2022-07-29T14:35:20.684Z,42.55
2022-07-29T14:38:15.824Z,42.56
2022-07-29T14:41:05.379Z,42.31
2022-07-29T14:43:54.675Z,42.12
2022-07-29T14:46:43.692Z,42.27
2022-07-29T14:49:28.330Z,42.34
2022-07-29T14:52:19.709Z,42.40
2022-07-29T14:55:19.859Z,42.62
2022-07-29T14:58:14.582Z,42.54
2022-07-29T15:01:06.374Z,42.77
2022-07-29T15:03:59.570Z,42.70
2022-07-29T15:06:49.677Z,42.64
2022-07-29T15:09:47.523Z,42.67
2022-07-29T15:12:39.756Z,42.76
2022-07-29T15:16:17.046Z,42.73
2022-07-29T15:19:07.289Z,42.93
2022-07-29T15:21:59.600Z,42.94
2022-07-29T15:24:51.035Z,42.95
2022-07-29T15:27:33.257Z,42.99
2022-07-29T15:30:32.327Z,42.90
2022-07-29T15:33:12.736Z,42.83
2022-07-29T15:36:01.776Z,43.02
2022-07-29T15:38:54.199Z,42.95
2022-07-29T15:41:43.290Z,42.90
2022-07-29T15:44:32.635Z,42.95
2022-07-29T15:47:21.630Z,42.91
2022-07-29T15:50:15.655Z,42.96
2022-07-29T15:52:57.518Z,42.99
2022-07-29T15:55:46.373Z,43.19
2022-07-29T15:58:35.254Z,43.20
2022-07-29T16:01:24.960Z,43.23
2022-07-29T16:04:14.283Z,43.13
2022-07-29T16:07:03.513Z,43.27
2022-07-29T16:09:53.449Z,43.42
2022-07-29T16:12:42.768Z,43.40
2022-07-29T16:15:32.074Z,43.45
2022-07-29T16:18:20.999Z,43.47
2022-07-29T16:21:19.181Z,43.62
2022-07-29T16:24:10.193Z,43.72
2022-07-29T16:26:59.625Z,43.64
2022-07-29T16:29:50.164Z,43.74
2022-07-29T16:32:39.707Z,43.71
2022-07-29T16:35:39.237Z,43.83
2022-07-29T16:38:29.431Z,43.92
2022-07-29T16:41:18.811Z,43.96
2022-07-29T16:44:08.309Z,44.07
2022-07-29T16:46:58.760Z,44.11
2022-07-29T16:49:50.340Z,44.18
2022-07-29T16:52:39.979Z,44.05
2022-07-29T16:57:02.613Z,44.14
2022-07-29T16:59:53.161Z,44.18
2022-07-29T17:02:42.340Z,44.19
2022-07-29T17:05:50.496Z,44.28
2022-07-29T17:08:41.204Z,44.29
2022-07-29T17:11:53.333Z,44.38
2022-07-29T17:14:39.743Z,44.37
2022-07-29T17:17:38.903Z,44.27
2022-07-29T17:20:47.016Z,44.30
2022-07-29T17:23:35.860Z,44.30
2022-07-29T17:26:26.428Z,44.39
2022-07-29T17:29:18.243Z,44.30
2022-07-29T17:31:59.100Z,44.29
2022-07-29T17:34:48.372Z,44.23
2022-07-29T17:37:37.278Z,44.14
2022-07-29T17:40:26.128Z,44.23
2022-07-29T17:43:15.885Z,44.14
2022-07-29T17:46:04.678Z,44.23
2022-07-29T17:48:55.243Z,44.25
2022-07-29T17:51:44.190Z,44.25
2022-07-29T17:54:33.437Z,44.26
2022-07-29T17:57:22.945Z,44.18
2022-07-29T18:00:13.228Z,44.33
2022-07-29T18:03:02.793Z,44.23
2022-07-29T18:05:53.007Z,44.30
2022-07-29T18:08:42.202Z,44.28
2022-07-29T18:11:31.970Z,44.41
2022-07-29T18:14:14.338Z,44.47
2022-07-29T18:17:04.114Z,44.37
2022-07-29T18:19:53.223Z,44.42
2022-07-29T18:22:35.602Z,44.49
2022-07-29T18:25:23.781Z,44.43
2022-07-29T18:28:15.009Z,44.65
2022-07-29T18:31:04.568Z,44.65
2022-07-29T18:34:00.065Z,44.67
2022-07-29T18:36:49.352Z,44.66
2022-07-29T18:39:38.472Z,44.77
2022-07-29T18:42:20.134Z,44.81
2022-07-29T18:44:50.513Z,44.89
2022-07-29T18:47:40.313Z,44.88
2022-07-29T18:50:30.953Z,45.08
2022-07-29T18:53:20.256Z,45.18
2022-07-29T18:56:10.765Z,45.18
2022-07-29T18:58:59.682Z,45.18
2022-07-29T19:01:50.338Z,45.32
2022-07-29T19:04:39.614Z,45.31
2022-07-29T19:07:29.423Z,45.49
2022-07-29T19:10:18.984Z,45.45
2022-07-29T19:13:08.662Z,45.53
2022-07-29T19:15:59.015Z,45.64
2022-07-29T19:18:48.407Z,45.60
2022-07-29T19:21:49.709Z,45.84
2022-07-29T19:24:38.957Z,45.79
2022-07-29T19:27:28.315Z,45.88
2022-07-29T19:30:19.431Z,45.92
2022-07-29T19:33:08.811Z,46.09
2022-07-29T19:35:58.585Z,46.10
2022-07-29T19:38:47.777Z,46.17
2022-07-29T19:41:37.764Z,46.23
2022-07-29T19:44:27.011Z,46.29
2022-07-29T19:51:38.388Z,46.35
2022-07-29T19:54:27.468Z,46.43
2022-07-29T19:57:16.744Z,46.44
2022-07-29T20:00:08.457Z,46.53
2022-07-29T20:03:02.802Z,46.55
2022-07-29T20:06:00.647Z,46.59
2022-07-29T20:08:56.733Z,46.61
2022-07-29T20:11:47.416Z,46.67
2022-07-29T20:14:37.443Z,46.68
2022-07-29T20:17:28.458Z,46.65
2022-07-29T20:20:19.680Z,46.72
2022-07-29T20:23:08.674Z,46.71
2022-07-29T20:25:58.220Z,46.86
2022-07-29T20:28:49.539Z,46.86
2022-07-29T20:31:32.698Z,46.82
2022-07-29T20:34:24.470Z,46.86
2022-07-29T20:37:16.037Z,46.95
2022-07-29T20:40:08.137Z,47.00
2022-07-29T20:43:02.302Z,46.90
2022-07-29T20:45:55.159Z,46.93
2022-07-29T20:48:46.651Z,47.10
2022-07-29T20:51:43.628Z,47.01
2022-07-29T20:54:33.341Z,46.98
2022-07-29T20:57:38.834Z,47.09
2022-07-29T21:00:30.836Z,47.09
2022-07-29T21:03:22.951Z,47.05
2022-07-29T21:06:12.707Z,47.16
2022-07-29T21:09:02.712Z,47.29
2022-07-29T21:11:53.095Z,47.34
2022-07-29T21:14:49.366Z,47.35
2022-07-29T21:17:45.971Z,47.33
2022-07-29T21:21:17.727Z,47.37
2022-07-29T21:24:12.328Z,47.36
2022-07-29T21:27:21.485Z,47.48
2022-07-29T21:30:11.902Z,47.54
2022-07-29T21:33:03.435Z,47.58
2022-07-29T21:39:06.914Z,47.68
2022-07-29T21:41:56.795Z,47.72
2022-07-29T21:44:45.987Z,47.75
2022-07-29T21:47:35.876Z,47.78
2022-07-29T21:50:41.531Z,47.74
2022-07-29T21:53:21.975Z,47.83
2022-07-29T21:56:14.653Z,47.81
2022-07-29T21:59:04.583Z,47.96
2022-07-29T22:02:00.444Z,47.87
2022-07-29T22:04:51.312Z,48.02
2022-07-29T22:07:56.375Z,48.03
2022-07-29T22:10:46.360Z,48.02
2022-07-29T22:13:36.977Z,48.18
2022-07-29T22:16:26.559Z,48.23
2022-07-29T22:29:56.223Z,48.39
2022-07-29T22:32:45.385Z,48.37
2022-07-29T22:35:35.257Z,48.52
2022-07-29T22:38:24.139Z,48.59
2022-07-29T22:41:41.644Z,48.43
2022-07-29T22:44:30.734Z,48.53
2022-07-29T22:47:46.620Z,48.55
2022-07-29T22:50:28.892Z,48.60
2022-07-29T22:53:18.937Z,48.48
2022-07-29T22:56:08.233Z,48.65
2022-07-29T22:58:57.533Z,48.69
2022-07-29T23:01:46.673Z,48.72
2022-07-29T23:04:35.919Z,48.72
2022-07-29T23:07:25.410Z,48.72
2022-07-29T23:10:15.333Z,48.74
2022-07-29T23:13:04.491Z,48.64
2022-07-29T23:15:53.947Z,48.81
2022-07-29T23:18:46.293Z,48.76
2022-07-29T23:21:35.814Z,48.67
2022-07-29T23:24:25.572Z,48.73
2022-07-29T23:27:14.759Z,48.67
2022-07-29T23:30:07.688Z,48.70
2022-07-29T23:32:56.860Z,48.77
2022-07-29T23:35:46.293Z,48.79
2022-07-29T23:38:35.428Z,48.80
2022-07-29T23:41:29.766Z,48.87
2022-07-29T23:44:18.967Z,48.89
2022-07-29T23:47:08.171Z,48.82
2022-07-29T23:49:57.695Z,48.82
2022-07-29T23:53:09.283Z,48.98
2022-07-29T23:55:48.738Z,49.03
2022-07-29T23:58:37.770Z,48.95
